^^
Meteo Knjazevac Station Historical Data
Daily Summary for March 29, 2022 Units:  Both    English   Metric
Daily Weekly Monthly Yearly Custom
  High: Low: Average:
Temperature: 42.8 °F /  6 °C 28.6 °F /  -1.9 °C 35.4 °F /  1.9 °C
Dew Point: 39.4 °F /  4.1 °C 28.3 °F /  -2.1 °C 34.5 °F /  1.4 °C
Humidity: 99% 86.9% 97%
Wind Speed: 17.5mph /  28.2km/h - 9.2mph /  14.8km/h
Wind Gust: 22mph /  35.4km/h - -
Wind- - South
Pressure: 30.12 in /  1019.9 hPa 30.09 in /  1018.8 hPa -
Precipitation: 0.00 in /  0 mm    
Historical Graphs
 
 
Tabular Data for March 29, 2022
Time Temperature Dew Point Pressure Wind Wind Speed Wind Gust Humidity Rainfall Rate (Hourly) solar Conditions
00:04 30.7 °F /  -0.7 °C 30.5 °F /  -0.8 °C 30.11in /  1019.5hPa West 1.3mph /  2.1km/h 2mph /  3.2km/h 99% 0.00in /  0mm 0 W/m2
00:09 30.7 °F /  -0.7 °C 30.4 °F /  -0.9 °C 30.11in /  1019.5hPa WSW 0.4mph /  0.6km/h 1mph /  1.6km/h 99% 0.00in /  0mm 0 W/m2
00:14 30.5 °F /  -0.8 °C 30.2 °F /  -1 °C 30.11in /  1019.5hPa SSW 1.8mph /  2.9km/h 2mph /  3.2km/h 99% 0.00in /  0mm 0 W/m2
00:19 30.3 °F /  -0.9 °C 30 °F /  -1.1 °C 30.11in /  1019.5hPa SSW 1.6mph /  2.6km/h 2mph /  3.2km/h 99% 0.00in /  0mm 0 W/m2
00:24 30 °F /  -1.1 °C 29.8 °F /  -1.2 °C 30.11in /  1019.5hPa WSW 1mph /  1.6km/h 2mph /  3.2km/h 99% 0.00in /  0mm 0 W/m2
00:29 30 °F /  -1.1 °C 29.8 °F /  -1.2 °C 30.11in /  1019.5hPa NNW 1mph /  1.6km/h 2mph /  3.2km/h 99% 0.00in /  0mm 0 W/m2
00:34 30 °F /  -1.1 °C 29.8 °F /  -1.2 °C 30.10in /  1019.2hPa North 1.4mph /  2.3km/h 1mph /  1.6km/h 99% 0.00in /  0mm 0 W/m2
00:39 30 °F /  -1.1 °C 29.8 °F /  -1.2 °C 30.10in /  1019.2hPa NE 1.3mph /  2.1km/h 3mph /  4.8km/h 99% 0.00in /  0mm 0 W/m2
00:44 30 °F /  -1.1 °C 29.8 °F /  -1.2 °C 30.10in /  1019.2hPa NNW 1.5mph /  2.4km/h 2mph /  3.2km/h 99% 0.00in /  0mm 0 W/m2
00:49 29.8 °F /  -1.2 °C 29.6 °F /  -1.3 °C 30.10in /  1019.2hPa WNW 1.7mph /  2.7km/h 2mph /  3.2km/h 99% 0.00in /  0mm 0 W/m2
00:54 29.7 °F /  -1.3 °C 29.4 °F /  -1.4 °C 30.10in /  1019.2hPa SW 2.6mph /  4.2km/h 3mph /  4.8km/h 99% 0.00in /  0mm 0 W/m2
00:59 29.7 °F /  -1.3 °C 29.4 °F /  -1.4 °C 30.10in /  1019.2hPa SSW 2.2mph /  3.5km/h 4mph /  6.4km/h 99% 0.00in /  0mm 0 W/m2
01:04 29.6 °F /  -1.3 °C 29.3 °F /  -1.5 °C 30.11in /  1019.5hPa South 2.3mph /  3.7km/h 2mph /  3.2km/h 99% 0.00in /  0mm 0 W/m2
01:09 29.5 °F /  -1.4 °C 29.2 °F /  -1.6 °C 30.11in /  1019.5hPa SSE 1.6mph /  2.6km/h 3mph /  4.8km/h 99% 0.00in /  0mm 0 W/m2
01:14 29.5 °F /  -1.4 °C 29.2 °F /  -1.6 °C 30.11in /  1019.5hPa SSE 1.8mph /  2.9km/h 2mph /  3.2km/h 99% 0.00in /  0mm 0 W/m2
01:19 29.5 °F /  -1.4 °C 29.2 °F /  -1.6 °C 30.11in /  1019.5hPa ENE 2.3mph /  3.7km/h 2mph /  3.2km/h 99% 0.00in /  0mm 0 W/m2
01:24 29.4 °F /  -1.4 °C 29.2 °F /  -1.6 °C 30.11in /  1019.5hPa East 1.9mph /  3.1km/h 3mph /  4.8km/h 99% 0.00in /  0mm 0 W/m2
01:29 29.4 °F /  -1.4 °C 29.2 °F /  -1.6 °C 30.11in /  1019.5hPa ESE 2.6mph /  4.2km/h 2.9mph /  4.7km/h 99% 0.00in /  0mm 0 W/m2
01:34 29.4 °F /  -1.4 °C 29.2 °F /  -1.6 °C 30.11in /  1019.5hPa ESE 3mph /  4.8km/h 4mph /  6.4km/h 99% 0.00in /  0mm 0 W/m2
01:39 29.4 °F /  -1.4 °C 29.2 °F /  -1.6 °C 30.11in /  1019.5hPa East 1.6mph /  2.6km/h 4mph /  6.4km/h 99% 0.00in /  0mm 0 W/m2
01:44 29.3 °F /  -1.5 °C 29.1 °F /  -1.6 °C 30.11in /  1019.5hPa NNE 2.9mph /  4.7km/h 2.7mph /  4.3km/h 99% 0.00in /  0mm 0 W/m2
01:49 29.5 °F /  -1.4 °C 29.2 °F /  -1.6 °C 30.11in /  1019.5hPa NNE 1.8mph /  2.9km/h 4mph /  6.4km/h 99% 0.00in /  0mm 0 W/m2
01:54 29.7 °F /  -1.3 °C 29.4 °F /  -1.4 °C 30.11in /  1019.5hPa ENE 1.1mph /  1.8km/h 2mph /  3.2km/h 99% 0.00in /  0mm 0 W/m2
01:59 29.6 °F /  -1.3 °C 29.3 °F /  -1.5 °C 30.11in /  1019.5hPa ENE 2.7mph /  4.3km/h 3mph /  4.8km/h 99% 0.00in /  0mm 0 W/m2
02:04 29.4 °F /  -1.4 °C 29.2 °F /  -1.6 °C 30.11in /  1019.5hPa NNE 2.3mph /  3.7km/h 3mph /  4.8km/h 99% 0.00in /  0mm 0 W/m2
02:09 29.3 °F /  -1.5 °C 29.1 °F /  -1.6 °C 30.11in /  1019.5hPa North 1.3mph /  2.1km/h 4mph /  6.4km/h 99% 0.00in /  0mm 0 W/m2
02:14 29.3 °F /  -1.5 °C 29.1 °F /  -1.6 °C 30.10in /  1019.2hPa NNW 1.9mph /  3.1km/h 3mph /  4.8km/h 99% 0.00in /  0mm 0 W/m2
02:19 29.2 °F /  -1.6 °C 29 °F /  -1.7 °C 30.10in /  1019.2hPa Calm   3mph /  4.8km/h 99% 0.00in /  0mm 0 W/m2
02:24 29.1 °F /  -1.6 °C 28.9 °F /  -1.7 °C 30.10in /  1019.2hPa North 1.1mph /  1.8km/h 1.1mph /  1.8km/h 99% 0.00in /  0mm 0 W/m2
02:29 29.1 °F /  -1.6 °C 28.9 °F /  -1.7 °C 30.10in /  1019.2hPa North 1mph /  1.6km/h 2mph /  3.2km/h 99% 0.00in /  0mm 0 W/m2
02:34 29 °F /  -1.7 °C 28.8 °F /  -1.8 °C 30.10in /  1019.2hPa NE 2.1mph /  3.4km/h 2mph /  3.2km/h 99% 0.00in /  0mm 0 W/m2
02:39 28.9 °F /  -1.7 °C 28.7 °F /  -1.8 °C 30.10in /  1019.2hPa SSE 2.1mph /  3.4km/h 3mph /  4.8km/h 99% 0.00in /  0mm 0 W/m2
02:44 28.8 °F /  -1.8 °C 28.6 °F /  -1.9 °C 30.10in /  1019.2hPa SSE 1.3mph /  2.1km/h 2mph /  3.2km/h 99% 0.00in /  0mm 0 W/m2
02:49 28.8 °F /  -1.8 °C 28.5 °F /  -1.9 °C 30.10in /  1019.2hPa Calm   2mph /  3.2km/h 99% 0.00in /  0mm 0 W/m2
02:54 28.8 °F /  -1.8 °C 28.5 °F /  -1.9 °C 30.10in /  1019.2hPa North 0.3mph /  0.5km/h 0.2mph /  0.3km/h 99% 0.00in /  0mm 0 W/m2
02:59 28.8 °F /  -1.8 °C 28.5 °F /  -1.9 °C 30.10in /  1019.2hPa North 0.9mph /  1.4km/h 1mph /  1.6km/h 99% 0.00in /  0mm 0 W/m2
03:04 28.6 °F /  -1.9 °C 28.3 °F /  -2.1 °C 30.10in /  1019.2hPa Calm   1mph /  1.6km/h 99% 0.00in /  0mm 0 W/m2
03:09 28.6 °F /  -1.9 °C 28.3 °F /  -2.1 °C 30.10in /  1019.2hPa West 0.7mph /  1.1km/h 0.9mph /  1.4km/h 99% 0.00in /  0mm 0 W/m2
03:14 28.6 °F /  -1.9 °C 28.3 °F /  -2.1 °C 30.10in /  1019.2hPa NW 1mph /  1.6km/h 1.1mph /  1.8km/h 99% 0.00in /  0mm 0 W/m2
03:19 28.6 °F /  -1.9 °C 28.3 °F /  -2.1 °C 30.10in /  1019.2hPa North 0.2mph /  0.3km/h 2mph /  3.2km/h 99% 0.00in /  0mm 0 W/m2
03:24 28.6 °F /  -1.9 °C 28.3 °F /  -2.1 °C 30.10in /  1019.2hPa SSE 1.5mph /  2.4km/h 1.6mph /  2.6km/h 99% 0.00in /  0mm 0 W/m2
03:29 28.6 °F /  -1.9 °C 28.3 °F /  -2.1 °C 30.10in /  1019.2hPa East 3.3mph /  5.3km/h 3.1mph /  5km/h 99% 0.00in /  0mm 0 W/m2
03:34 28.8 °F /  -1.8 °C 28.5 °F /  -1.9 °C 30.10in /  1019.2hPa NE 3.4mph /  5.5km/h 5mph /  8km/h 99% 0.00in /  0mm 0 W/m2
03:39 28.9 °F /  -1.7 °C 28.7 °F /  -1.8 °C 30.10in /  1019.2hPa NNE 1.9mph /  3.1km/h 5mph /  8km/h 99% 0.00in /  0mm 0 W/m2
03:44 29 °F /  -1.7 °C 28.8 °F /  -1.8 °C 30.10in /  1019.2hPa NE 2.9mph /  4.7km/h 2.7mph /  4.3km/h 99% 0.00in /  0mm 0 W/m2
03:49 29.1 °F /  -1.6 °C 28.9 °F /  -1.7 °C 30.10in /  1019.2hPa NE 3.1mph /  5km/h 4mph /  6.4km/h 99% 0.00in /  0mm 0 W/m2
03:54 29.1 °F /  -1.6 °C 28.9 °F /  -1.7 °C 30.10in /  1019.2hPa NE 1.8mph /  2.9km/h 4mph /  6.4km/h 99% 0.00in /  0mm 0 W/m2
03:59 29.1 °F /  -1.6 °C 28.9 °F /  -1.7 °C 30.10in /  1019.2hPa NNW 2mph /  3.2km/h 2mph /  3.2km/h 99% 0.00in /  0mm 0 W/m2
04:04 28.9 °F /  -1.7 °C 28.7 °F /  -1.8 °C 30.10in /  1019.2hPa West 2.5mph /  4km/h 2mph /  3.2km/h 99% 0.00in /  0mm 0 W/m2
04:09 28.9 °F /  -1.7 °C 28.7 °F /  -1.8 °C 30.10in /  1019.2hPa WNW 1.5mph /  2.4km/h 3mph /  4.8km/h 99% 0.00in /  0mm 0 W/m2
04:14 28.8 °F /  -1.8 °C 28.6 °F /  -1.9 °C 30.10in /  1019.2hPa WNW 2.4mph /  3.9km/h 2mph /  3.2km/h 99% 0.00in /  0mm 0 W/m2
04:19 28.8 °F /  -1.8 °C 28.5 °F /  -1.9 °C 30.10in /  1019.2hPa SW 2.3mph /  3.7km/h 3mph /  4.8km/h 99% 0.00in /  0mm 0 W/m2
04:24 28.8 °F /  -1.8 °C 28.5 °F /  -1.9 °C 30.10in /  1019.2hPa WSW 1.9mph /  3.1km/h 2mph /  3.2km/h 99% 0.00in /  0mm 0 W/m2
04:29 28.8 °F /  -1.8 °C 28.5 °F /  -1.9 °C 30.10in /  1019.2hPa WNW 2.4mph /  3.9km/h 3mph /  4.8km/h 99% 0.00in /  0mm 0 W/m2
04:34 28.9 °F /  -1.7 °C 28.6 °F /  -1.9 °C 30.10in /  1019.2hPa NNW 2.6mph /  4.2km/h 3mph /  4.8km/h 99% 0.00in /  0mm 0 W/m2
04:39 28.9 °F /  -1.7 °C 28.7 °F /  -1.8 °C 30.10in /  1019.2hPa NNW 1.7mph /  2.7km/h 4mph /  6.4km/h 99% 0.00in /  0mm 0 W/m2
04:44 29.2 °F /  -1.6 °C 29 °F /  -1.7 °C 30.10in /  1019.2hPa NNW 1.6mph /  2.6km/h 2mph /  3.2km/h 99% 0.00in /  0mm 0 W/m2
04:49 29.4 °F /  -1.4 °C 29.2 °F /  -1.6 °C 30.10in /  1019.2hPa West 2.2mph /  3.5km/h 2mph /  3.2km/h 99% 0.00in /  0mm 0 W/m2
04:54 29.5 °F /  -1.4 °C 29.2 °F /  -1.6 °C 30.10in /  1019.2hPa SW 2.6mph /  4.2km/h 3mph /  4.8km/h 99% 0.00in /  0mm 0 W/m2
04:59 29.7 °F /  -1.3 °C 29.4 °F /  -1.4 °C 30.10in /  1019.2hPa WNW 1.6mph /  2.6km/h 3mph /  4.8km/h 99% 0.00in /  0mm 0 W/m2
05:04 29.9 °F /  -1.2 °C 29.7 °F /  -1.3 °C 30.10in /  1019.2hPa NNE 2.5mph /  4km/h 2mph /  3.2km/h 99% 0.00in /  0mm 0 W/m2
05:09 30.5 °F /  -0.8 °C 30.2 °F /  -1 °C 30.10in /  1019.2hPa NNE 2.9mph /  4.7km/h 4mph /  6.4km/h 99% 0.00in /  0mm 0 W/m2
05:14 30.7 °F /  -0.7 °C 30.4 °F /  -0.9 °C 30.10in /  1019.2hPa NNE 3.2mph /  5.1km/h 4mph /  6.4km/h 99% 0.00in /  0mm 0 W/m2
05:19 30.8 °F /  -0.7 °C 30.6 °F /  -0.8 °C 30.10in /  1019.2hPa NNE 2.4mph /  3.9km/h 4mph /  6.4km/h 99% 0.00in /  0mm 0 W/m2
05:24 30.9 °F /  -0.6 °C 30.7 °F /  -0.7 °C 30.10in /  1019.2hPa NE 3.6mph /  5.8km/h 4mph /  6.4km/h 99% 0.00in /  0mm 0 W/m2
05:29 30.9 °F /  -0.6 °C 30.7 °F /  -0.7 °C 30.10in /  1019.2hPa NE 3.1mph /  5km/h 5mph /  8km/h 99% 0.00in /  0mm 0 W/m2
05:34 30.9 °F /  -0.6 °C 30.7 °F /  -0.7 °C 30.10in /  1019.2hPa NE 3.5mph /  5.6km/h 5mph /  8km/h 99% 0.00in /  0mm 0 W/m2
05:39 30.9 °F /  -0.6 °C 30.7 °F /  -0.7 °C 30.10in /  1019.2hPa NNE 2.6mph /  4.2km/h 6mph /  9.7km/h 99% 0.00in /  0mm 0 W/m2
05:44 30.9 °F /  -0.6 °C 30.7 °F /  -0.7 °C 30.10in /  1019.2hPa NNE 3.1mph /  5km/h 4mph /  6.4km/h 99% 0.00in /  0mm 0 W/m2
05:49 30.9 °F /  -0.6 °C 30.7 °F /  -0.7 °C 30.10in /  1019.2hPa NE 3.6mph /  5.8km/h 4mph /  6.4km/h 99% 0.00in /  0mm 0 W/m2
05:54 30.9 °F /  -0.6 °C 30.7 °F /  -0.7 °C 30.10in /  1019.2hPa NE 4.2mph /  6.8km/h 5mph /  8km/h 99% 0.00in /  0mm 0 W/m2
05:59 30.9 °F /  -0.6 °C 30.7 °F /  -0.7 °C 30.10in /  1019.2hPa NE 5.6mph /  9km/h 6mph /  9.7km/h 99% 0.00in /  0mm 0 W/m2
06:04 30.9 °F /  -0.6 °C 30.7 °F /  -0.7 °C 30.10in /  1019.2hPa NE 5mph /  8km/h 8mph /  12.9km/h 99% 0.00in /  0mm 0 W/m2
06:09 31.1 °F /  -0.5 °C 30.9 °F /  -0.6 °C 30.10in /  1019.2hPa NE 6.1mph /  9.8km/h 8mph /  12.9km/h 99% 0.00in /  0mm 0 W/m2
06:14 31.2 °F /  -0.4 °C 30.9 °F /  -0.6 °C 30.11in /  1019.5hPa NE 4.3mph /  6.9km/h 7mph /  11.3km/h 99% 0.00in /  0mm 0 W/m2
06:19 31.2 °F /  -0.4 °C 30.9 °F /  -0.6 °C 30.10in /  1019.2hPa NE 4.8mph /  7.7km/h 4.9mph /  7.9km/h 99% 0.00in /  0mm 0 W/m2
06:24 31.3 °F /  -0.4 °C 31 °F /  -0.6 °C 30.11in /  1019.5hPa NE 5.6mph /  9km/h 10mph /  16.1km/h 99% 0.00in /  0mm 0 W/m2
06:29 31.5 °F /  -0.3 °C 31.2 °F /  -0.4 °C 30.11in /  1019.5hPa NNE 5.9mph /  9.5km/h 8mph /  12.9km/h 99% 0.00in /  0mm 1 W/m2
06:34 31.4 °F /  -0.3 °C 31.1 °F /  -0.5 °C 30.11in /  1019.5hPa NE 5.7mph /  9.2km/h 8mph /  12.9km/h 99% 0.00in /  0mm 2 W/m2
06:39 31.3 °F /  -0.4 °C 31 °F /  -0.6 °C 30.11in /  1019.5hPa ENE 5.1mph /  8.2km/h 7mph /  11.3km/h 99% 0.00in /  0mm 3 W/m2
06:44 31.2 °F /  -0.4 °C 30.9 °F /  -0.6 °C 30.11in /  1019.5hPa ENE 4.3mph /  6.9km/h 5mph /  8km/h 99% 0.00in /  0mm 6 W/m2
06:49 31.1 °F /  -0.5 °C 30.9 °F /  -0.6 °C 30.11in /  1019.5hPa ENE 4.4mph /  7.1km/h 5mph /  8km/h 99% 0.00in /  0mm 8 W/m2
06:54 31.2 °F /  -0.4 °C 31 °F /  -0.6 °C 30.11in /  1019.5hPa NE 6.3mph /  10.1km/h 5.8mph /  9.3km/h 99% 0.00in /  0mm 11 W/m2
06:59 31.3 °F /  -0.4 °C 31 °F /  -0.6 °C 30.11in /  1019.5hPa ENE 3.2mph /  5.1km/h 8mph /  12.9km/h 99% 0.00in /  0mm 15 W/m2
07:04 31.3 °F /  -0.4 °C 31 °F /  -0.6 °C 30.11in /  1019.5hPa ENE 6mph /  9.7km/h 5mph /  8km/h 99% 0.00in /  0mm 22 W/m2
07:09 31.5 °F /  -0.3 °C 31.3 °F /  -0.4 °C 30.11in /  1019.5hPa NE 8.7mph /  14km/h 12mph /  19.3km/h 99% 0.00in /  0mm 29 W/m2
07:14 31.7 °F /  -0.2 °C 31.5 °F /  -0.3 °C 30.11in /  1019.5hPa NNE 7.2mph /  11.6km/h 12mph /  19.3km/h 99% 0.00in /  0mm 39 W/m2
07:19 31.9 °F /  -0.1 °C 31.7 °F /  -0.2 °C 30.11in /  1019.5hPa NNE 8.9mph /  14.3km/h 9mph /  14.5km/h 99% 0.00in /  0mm 45 W/m2
07:24 32.1 °F /  0.1 °C 31.9 °F /  -0.1 °C 30.11in /  1019.5hPa NNE 6.2mph /  10km/h 11mph /  17.7km/h 99% 0.00in /  0mm 51 W/m2
07:29 32.2 °F /  0.1 °C 31.9 °F /  -0.1 °C 30.11in /  1019.5hPa NNE 4.7mph /  7.6km/h 6mph /  9.7km/h 99% 0.00in /  0mm 70 W/m2
07:34 32.4 °F /  0.2 °C 32.1 °F /  0.1 °C 30.11in /  1019.5hPa NNE 4.7mph /  7.6km/h 6mph /  9.7km/h 99% 0.00in /  0mm 75 W/m2
07:39 32.9 °F /  0.5 °C 32.6 °F /  0.3 °C 30.11in /  1019.5hPa NNE 5mph /  8km/h 7mph /  11.3km/h 99% 0.00in /  0mm 77 W/m2
07:44 33.2 °F /  0.7 °C 32.9 °F /  0.5 °C 30.11in /  1019.5hPa NNE 5.5mph /  8.9km/h 6mph /  9.7km/h 99% 0.00in /  0mm 73 W/m2
07:49 33.6 °F /  0.9 °C 33.4 °F /  0.8 °C 30.11in /  1019.5hPa NNE 6.1mph /  9.8km/h 7mph /  11.3km/h 99% 0.00in /  0mm 74 W/m2
07:54 33.8 °F /  1 °C 33.5 °F /  0.8 °C 30.11in /  1019.5hPa NNE 6.7mph /  10.8km/h 8mph /  12.9km/h 99% 0.00in /  0mm 92 W/m2
07:59 34.1 °F /  1.2 °C 33.8 °F /  1 °C 30.11in /  1019.5hPa NNE 5.1mph /  8.2km/h 8mph /  12.9km/h 99% 0.00in /  0mm 127 W/m2
08:04 34.5 °F /  1.4 °C 34.3 °F /  1.3 °C 30.11in /  1019.5hPa NE 5.5mph /  8.9km/h 6mph /  9.7km/h 99% 0.00in /  0mm 138 W/m2
08:09 34.7 °F /  1.5 °C 34.4 °F /  1.3 °C 30.11in /  1019.5hPa NE 4.9mph /  7.9km/h 6mph /  9.7km/h 99% 0.00in /  0mm 122 W/m2
08:14 34.7 °F /  1.5 °C 34.4 °F /  1.3 °C 30.11in /  1019.5hPa NE 6.6mph /  10.6km/h 7mph /  11.3km/h 99% 0.00in /  0mm 120 W/m2
08:19 34.9 °F /  1.6 °C 34.6 °F /  1.4 °C 30.11in /  1019.5hPa NNE 8.8mph /  14.2km/h 11mph /  17.7km/h 99% 0.00in /  0mm 124 W/m2
08:24 35.1 °F /  1.7 °C 34.9 °F /  1.6 °C 30.11in /  1019.5hPa NNE 11.5mph /  18.5km/h 14mph /  22.5km/h 99% 0.00in /  0mm 99 W/m2
08:29 35.3 °F /  1.8 °C 35.1 °F /  1.7 °C 30.11in /  1019.5hPa North 10mph /  16.1km/h 16mph /  25.7km/h 99% 0.00in /  0mm 119 W/m2
08:34 35.5 °F /  1.9 °C 35.3 °F /  1.8 °C 30.12in /  1019.9hPa North 10.6mph /  17.1km/h 12mph /  19.3km/h 99% 0.00in /  0mm 134 W/m2
08:39 35.9 °F /  2.2 °C 35.6 °F /  2 °C 30.12in /  1019.9hPa North 13.4mph /  21.6km/h 14mph /  22.5km/h 99% 0.00in /  0mm 136 W/m2
08:44 36.1 °F /  2.3 °C 35.9 °F /  2.2 °C 30.12in /  1019.9hPa North 12.3mph /  19.8km/h 16mph /  25.7km/h 99% 0.00in /  0mm 148 W/m2
08:49 36.4 °F /  2.4 °C 36.1 °F /  2.3 °C 30.12in /  1019.9hPa North 11.7mph /  18.8km/h 13mph /  20.9km/h 99% 0.00in /  0mm 198 W/m2
08:54 36.8 °F /  2.7 °C 36.5 °F /  2.5 °C 30.12in /  1019.9hPa North 13.1mph /  21.1km/h 13mph /  20.9km/h 99% 0.00in /  0mm 214 W/m2
08:59 37.1 °F /  2.8 °C 36.9 °F /  2.7 °C 30.12in /  1019.9hPa North 13.6mph /  21.9km/h 15mph /  24.1km/h 99% 0.00in /  0mm 207 W/m2
09:04 37.2 °F /  2.9 °C 37 °F /  2.8 °C 30.12in /  1019.9hPa North 11.5mph /  18.5km/h 15mph /  24.1km/h 99% 0.00in /  0mm 155 W/m2
09:09 37.2 °F /  2.9 °C 37 °F /  2.8 °C 30.12in /  1019.9hPa North 13.4mph /  21.6km/h 14mph /  22.5km/h 99% 0.00in /  0mm 197 W/m2
09:14 37.4 °F /  3 °C 37.1 °F /  2.8 °C 30.12in /  1019.9hPa North 12.9mph /  20.8km/h 15mph /  24.1km/h 99% 0.00in /  0mm 211 W/m2
09:19 37.5 °F /  3.1 °C 37.2 °F /  2.9 °C 30.12in /  1019.9hPa North 11.4mph /  18.3km/h 14mph /  22.5km/h 99% 0.00in /  0mm 243 W/m2
09:24 37.8 °F /  3.2 °C 37.5 °F /  3.1 °C 30.12in /  1019.9hPa North 14.4mph /  23.2km/h 15mph /  24.1km/h 99% 0.00in /  0mm 350 W/m2
09:29 38.3 °F /  3.5 °C 38 °F /  3.3 °C 30.12in /  1019.9hPa North 12.3mph /  19.8km/h 15mph /  24.1km/h 99% 0.00in /  0mm 389 W/m2
09:34 39 °F /  3.9 °C 38.5 °F /  3.6 °C 30.12in /  1019.9hPa North 12.2mph /  19.6km/h 14mph /  22.5km/h 98.3% 0.00in /  0mm 468 W/m2
09:39 39.8 °F /  4.3 °C 39.1 °F /  3.9 °C 30.12in /  1019.9hPa North 11.8mph /  19km/h 14mph /  22.5km/h 96.9% 0.00in /  0mm 403 W/m2
09:44 40.3 °F /  4.6 °C 39 °F /  3.9 °C 30.12in /  1019.9hPa North 10.6mph /  17.1km/h 13mph /  20.9km/h 95.1% 0.00in /  0mm 402 W/m2
09:49 40.1 °F /  4.5 °C 38.6 °F /  3.7 °C 30.12in /  1019.9hPa North 11.6mph /  18.7km/h 13mph /  20.9km/h 94.3% 0.00in /  0mm 220 W/m2
09:54 39.7 °F /  4.3 °C 38.1 °F /  3.4 °C 30.12in /  1019.9hPa North 13.2mph /  21.2km/h 13mph /  20.9km/h 94% 0.00in /  0mm 318 W/m2
09:59 39.7 °F /  4.3 °C 38.1 °F /  3.4 °C 30.11in /  1019.5hPa North 12.9mph /  20.8km/h 15mph /  24.1km/h 94% 0.00in /  0mm 318 W/m2
10:04 39.8 °F /  4.3 °C 38.2 °F /  3.4 °C 30.11in /  1019.5hPa North 12.1mph /  19.5km/h 14mph /  22.5km/h 93.8% 0.00in /  0mm 229 W/m2
10:09 39.7 °F /  4.3 °C 38.1 °F /  3.4 °C 30.11in /  1019.5hPa North 12.4mph /  20km/h 14mph /  22.5km/h 93.5% 0.00in /  0mm 243 W/m2
10:14 39.7 °F /  4.3 °C 38.1 °F /  3.4 °C 30.11in /  1019.5hPa North 11.2mph /  18km/h 14mph /  22.5km/h 93.6% 0.00in /  0mm 292 W/m2
10:19 39.8 °F /  4.3 °C 38.1 °F /  3.4 °C 30.11in /  1019.5hPa North 11.9mph /  19.2km/h 15mph /  24.1km/h 93.4% 0.00in /  0mm 380 W/m2
10:24 40.3 °F /  4.6 °C 38.5 °F /  3.6 °C 30.11in /  1019.5hPa North 12.3mph /  19.8km/h 15mph /  24.1km/h 93.2% 0.00in /  0mm 573 W/m2
10:29 40.8 °F /  4.9 °C 38.6 °F /  3.7 °C 30.10in /  1019.2hPa North 12.5mph /  20.1km/h 14mph /  22.5km/h 91.8% 0.00in /  0mm 462 W/m2
10:34 41.4 °F /  5.2 °C 39.2 °F /  4 °C 30.10in /  1019.2hPa North 14.7mph /  23.7km/h 15mph /  24.1km/h 91.7% 0.00in /  0mm 468 W/m2
10:39 41.9 °F /  5.5 °C 39.2 °F /  4 °C 30.10in /  1019.2hPa North 13.4mph /  21.6km/h 16mph /  25.7km/h 90% 0.00in /  0mm 500 W/m2
10:44 41.8 °F /  5.4 °C 39 °F /  3.9 °C 30.10in /  1019.2hPa North 12.9mph /  20.8km/h 16mph /  25.7km/h 89.7% 0.00in /  0mm 436 W/m2
10:49 41.5 °F /  5.3 °C 38.5 °F /  3.6 °C 30.10in /  1019.2hPa North 12.1mph /  19.5km/h 15mph /  24.1km/h 89.2% 0.00in /  0mm 524 W/m2
10:54 41.5 °F /  5.3 °C 38.6 °F /  3.7 °C 30.10in /  1019.2hPa North 13.5mph /  21.7km/h 14mph /  22.5km/h 89.3% 0.00in /  0mm 515 W/m2
10:59 41.6 °F /  5.3 °C 38.7 °F /  3.7 °C 30.10in /  1019.2hPa North 11.4mph /  18.3km/h 16mph /  25.7km/h 89.2% 0.00in /  0mm 542 W/m2
11:04 42.1 °F /  5.6 °C 39.2 °F /  4 °C 30.10in /  1019.2hPa North 10.5mph /  16.9km/h 13mph /  20.9km/h 89.5% 0.00in /  0mm 543 W/m2
11:09 42.3 °F /  5.7 °C 39.1 °F /  3.9 °C 30.10in /  1019.2hPa North 12.6mph /  20.3km/h 14mph /  22.5km/h 88.4% 0.00in /  0mm 586 W/m2
11:14 42.1 °F /  5.6 °C 38.9 °F /  3.8 °C 30.10in /  1019.2hPa North 13.9mph /  22.4km/h 20mph /  32.2km/h 88.4% 0.00in /  0mm 343 W/m2
11:19 41.9 °F /  5.5 °C 38.8 °F /  3.8 °C 30.10in /  1019.2hPa North 11.9mph /  19.2km/h 20mph /  32.2km/h 88.5% 0.00in /  0mm 324 W/m2
11:24 41.8 °F /  5.4 °C 38.7 °F /  3.7 °C 30.10in /  1019.2hPa North 12.8mph /  20.6km/h 14mph /  22.5km/h 88.8% 0.00in /  0mm 429 W/m2
11:29 41.5 °F /  5.3 °C 38.5 °F /  3.6 °C 30.10in /  1019.2hPa North 10.3mph /  16.6km/h 14mph /  22.5km/h 88.7% 0.00in /  0mm 516 W/m2
11:34 41.8 °F /  5.4 °C 38.8 °F /  3.8 °C 30.10in /  1019.2hPa North 13.1mph /  21.1km/h 13mph /  20.9km/h 89% 0.00in /  0mm 647 W/m2
11:39 42.5 °F /  5.8 °C 39.3 °F /  4.1 °C 30.10in /  1019.2hPa North 14.3mph /  23km/h 16mph /  25.7km/h 88.4% 0.00in /  0mm 580 W/m2
11:44 42.8 °F /  6 °C 39.4 °F /  4.1 °C 30.10in /  1019.2hPa North 13.9mph /  22.4km/h 19mph /  30.6km/h 87.8% 0.00in /  0mm 517 W/m2
11:49 42.7 °F /  5.9 °C 39.4 °F /  4.1 °C 30.10in /  1019.2hPa North 11.5mph /  18.5km/h 18mph /  29km/h 87.8% 0.00in /  0mm 482 W/m2
11:54 42.4 °F /  5.8 °C 38.7 °F /  3.7 °C 30.10in /  1019.2hPa North 13.3mph /  21.4km/h 16mph /  25.7km/h 86.9% 0.00in /  0mm 338 W/m2
11:59 42 °F /  5.6 °C 38.7 °F /  3.7 °C 30.10in /  1019.2hPa North 12.2mph /  19.6km/h 15mph /  24.1km/h 88% 0.00in /  0mm 268 W/m2
12:04 41.7 °F /  5.4 °C 38.5 °F /  3.6 °C 30.10in /  1019.2hPa North 10.3mph /  16.6km/h 14mph /  22.5km/h 88.3% 0.00in /  0mm 216 W/m2
12:09 41.4 °F /  5.2 °C 38.4 °F /  3.6 °C 30.10in /  1019.2hPa North 9.6mph /  15.4km/h 14mph /  22.5km/h 88.9% 0.00in /  0mm 201 W/m2
12:14 41.2 °F /  5.1 °C 38.2 °F /  3.4 °C 30.10in /  1019.2hPa North 13mph /  20.9km/h 12mph /  19.3km/h 89% 0.00in /  0mm 190 W/m2
12:19 40.9 °F /  4.9 °C 38 °F /  3.3 °C 30.10in /  1019.2hPa North 10.6mph /  17.1km/h 15mph /  24.1km/h 89.3% 0.00in /  0mm 181 W/m2
12:24 40.8 °F /  4.9 °C 38.1 °F /  3.4 °C 30.10in /  1019.2hPa North 10.5mph /  16.9km/h 12mph /  19.3km/h 90% 0.00in /  0mm 166 W/m2
12:29 40.8 °F /  4.9 °C 38.1 °F /  3.4 °C 30.10in /  1019.2hPa North 10.5mph /  16.9km/h 12mph /  19.3km/h 90% 0.00in /  0mm 177 W/m2
12:34 40.7 °F /  4.8 °C 38 °F /  3.3 °C 30.10in /  1019.2hPa North 14.6mph /  23.5km/h 15mph /  24.1km/h 90% 0.00in /  0mm 203 W/m2
12:39 40.5 °F /  4.7 °C 37.8 °F /  3.2 °C 30.10in /  1019.2hPa North 16mph /  25.7km/h 16mph /  25.7km/h 90% 0.00in /  0mm 202 W/m2
12:44 40.5 °F /  4.7 °C 37.8 °F /  3.2 °C 30.10in /  1019.2hPa North 12.6mph /  20.3km/h 20mph /  32.2km/h 90% 0.00in /  0mm 185 W/m2
12:49 40.3 °F /  4.6 °C 37.6 °F /  3.1 °C 30.09in /  1018.8hPa North 13.9mph /  22.4km/h 14mph /  22.5km/h 90% 0.00in /  0mm 188 W/m2
12:54 40.1 °F /  4.5 °C 37.7 °F /  3.2 °C 30.10in /  1019.2hPa North 14.1mph /  22.7km/h 17mph /  27.4km/h 90.9% 0.00in /  0mm 195 W/m2
12:59 40.1 °F /  4.5 °C 37.7 °F /  3.2 °C 30.10in /  1019.2hPa North 15.3mph /  24.6km/h 17mph /  27.4km/h 91% 0.00in /  0mm 199 W/m2
13:04 40.1 °F /  4.5 °C 37.7 °F /  3.2 °C 30.10in /  1019.2hPa North 11.4mph /  18.3km/h 17mph /  27.4km/h 91% 0.00in /  0mm 198 W/m2
13:09 40.1 °F /  4.5 °C 37.7 °F /  3.2 °C 30.10in /  1019.2hPa North 11.7mph /  18.8km/h 14mph /  22.5km/h 91% 0.00in /  0mm 197 W/m2
13:14 40.1 °F /  4.5 °C 37.7 °F /  3.2 °C 30.09in /  1018.8hPa North 13mph /  20.9km/h 16mph /  25.7km/h 91% 0.00in /  0mm 186 W/m2
13:19 40.1 °F /  4.5 °C 37.7 °F /  3.2 °C 30.09in /  1018.8hPa North 11mph /  17.7km/h 16mph /  25.7km/h 91% 0.00in /  0mm 201 W/m2
13:24 40.1 °F /  4.5 °C 37.7 °F /  3.2 °C 30.09in /  1018.8hPa North 12.4mph /  20km/h 13mph /  20.9km/h 91% 0.00in /  0mm 199 W/m2
13:29 40.1 °F /  4.5 °C 37.7 °F /  3.2 °C 30.09in /  1018.8hPa North 12.3mph /  19.8km/h 16mph /  25.7km/h 91% 0.00in /  0mm 185 W/m2
13:34 40.1 °F /  4.5 °C 37.7 °F /  3.2 °C 30.09in /  1018.8hPa North 12.1mph /  19.5km/h 14mph /  22.5km/h 91% 0.00in /  0mm 191 W/m2
13:39 40.1 °F /  4.5 °C 37.7 °F /  3.2 °C 30.09in /  1018.8hPa North 10.5mph /  16.9km/h 14mph /  22.5km/h 91% 0.00in /  0mm 186 W/m2
13:44 40.1 °F /  4.5 °C 37.7 °F /  3.2 °C 30.09in /  1018.8hPa North 14.8mph /  23.8km/h 13mph /  20.9km/h 91% 0.00in /  0mm 179 W/m2
13:49 40.1 °F /  4.5 °C 37.7 °F /  3.2 °C 30.09in /  1018.8hPa North 15mph /  24.1km/h 18mph /  29km/h 91% 0.00in /  0mm 179 W/m2
13:54 40.1 °F /  4.5 °C 37.7 °F /  3.2 °C 30.09in /  1018.8hPa North 12.2mph /  19.6km/h 16mph /  25.7km/h 91% 0.00in /  0mm 162 W/m2
13:59 39.9 °F /  4.4 °C 37.5 °F /  3.1 °C 30.09in /  1018.8hPa North 12mph /  19.3km/h 15mph /  24.1km/h 91% 0.00in /  0mm 138 W/m2
14:04 39.7 °F /  4.3 °C 37.4 °F /  3 °C 30.09in /  1018.8hPa North 14.3mph /  23km/h 14mph /  22.5km/h 91.4% 0.00in /  0mm 115 W/m2
14:09 39.6 °F /  4.2 °C 37.7 °F /  3.2 °C 30.09in /  1018.8hPa North 12.8mph /  20.6km/h 17mph /  27.4km/h 93% 0.00in /  0mm 86 W/m2
14:14 39.5 °F /  4.2 °C 37.6 °F /  3.1 °C 30.09in /  1018.8hPa North 14.2mph /  22.9km/h 15mph /  24.1km/h 93% 0.00in /  0mm 102 W/m2
14:19 39.3 °F /  4.1 °C 37.4 °F /  3 °C 30.09in /  1018.8hPa North 12.3mph /  19.8km/h 20mph /  32.2km/h 93% 0.00in /  0mm 102 W/m2
14:24 39.2 °F /  4 °C 37.3 °F /  2.9 °C 30.09in /  1018.8hPa North 12.6mph /  20.3km/h 15mph /  24.1km/h 93% 0.00in /  0mm 95 W/m2
14:29 39.1 °F /  3.9 °C 37.3 °F /  2.9 °C 30.09in /  1018.8hPa North 16mph /  25.7km/h 18mph /  29km/h 93.3% 0.00in /  0mm 94 W/m2
14:34 39 °F /  3.9 °C 37.4 °F /  3 °C 30.09in /  1018.8hPa North 13.4mph /  21.6km/h 18mph /  29km/h 94% 0.00in /  0mm 91 W/m2
14:39 39 °F /  3.9 °C 37.4 °F /  3 °C 30.09in /  1018.8hPa North 14.2mph /  22.9km/h 15mph /  24.1km/h 94% 0.00in /  0mm 84 W/m2
14:44 39 °F /  3.9 °C 37.4 °F /  3 °C 30.09in /  1018.8hPa North 12.1mph /  19.5km/h 17mph /  27.4km/h 94% 0.00in /  0mm 80 W/m2
14:49 38.9 °F /  3.8 °C 37.3 °F /  2.9 °C 30.09in /  1018.8hPa North 12.1mph /  19.5km/h 14mph /  22.5km/h 94% 0.00in /  0mm 76 W/m2
14:54 38.8 °F /  3.8 °C 37.3 °F /  2.9 °C 30.09in /  1018.8hPa North 12.5mph /  20.1km/h 13mph /  20.9km/h 94% 0.00in /  0mm 73 W/m2
14:59 38.8 °F /  3.8 °C 37.2 °F /  2.9 °C 30.09in /  1018.8hPa North 11.5mph /  18.5km/h 14mph /  22.5km/h 94% 0.00in /  0mm 59 W/m2
15:04 38.7 °F /  3.7 °C 37.1 °F /  2.8 °C 30.09in /  1018.8hPa North 13.6mph /  21.9km/h 14mph /  22.5km/h 94% 0.00in /  0mm 42 W/m2
15:09 38.7 °F /  3.7 °C 37.1 °F /  2.8 °C 30.09in /  1018.8hPa North 10.9mph /  17.5km/h 19mph /  30.6km/h 94% 0.00in /  0mm 34 W/m2
15:14 38.6 °F /  3.7 °C 37 °F /  2.8 °C 30.09in /  1018.8hPa North 13.9mph /  22.4km/h 12mph /  19.3km/h 94% 0.00in /  0mm 27 W/m2
15:19 38.5 °F /  3.6 °C 36.9 °F /  2.7 °C 30.09in /  1018.8hPa North 14.4mph /  23.2km/h 16mph /  25.7km/h 94% 0.00in /  0mm 21 W/m2
15:24 38.5 °F /  3.6 °C 36.9 °F /  2.7 °C 30.10in /  1019.2hPa North 11.9mph /  19.2km/h 17mph /  27.4km/h 94% 0.00in /  0mm 14 W/m2
15:29 38.5 °F /  3.6 °C 36.9 °F /  2.7 °C 30.10in /  1019.2hPa North 15.2mph /  24.5km/h 17mph /  27.4km/h 94% 0.00in /  0mm 12 W/m2
15:34 38.4 °F /  3.6 °C 36.8 °F /  2.7 °C 30.10in /  1019.2hPa North 11.7mph /  18.8km/h 17mph /  27.4km/h 94% 0.00in /  0mm 10 W/m2
15:39 38.3 °F /  3.5 °C 36.7 °F /  2.6 °C 30.10in /  1019.2hPa North 12.8mph /  20.6km/h 14mph /  22.5km/h 94% 0.00in /  0mm 9 W/m2
15:44 38.3 °F /  3.5 °C 36.8 °F /  2.7 °C 30.10in /  1019.2hPa North 12.6mph /  20.3km/h 15mph /  24.1km/h 94.4% 0.00in /  0mm 8 W/m2
15:49 38.2 °F /  3.4 °C 36.9 °F /  2.7 °C 30.09in /  1018.8hPa North 13.6mph /  21.9km/h 14mph /  22.5km/h 95% 0.00in /  0mm 7 W/m2
15:54 38.1 °F /  3.4 °C 36.8 °F /  2.7 °C 30.10in /  1019.2hPa North 10.4mph /  16.7km/h 15mph /  24.1km/h 95% 0.00in /  0mm 4 W/m2
15:59 38 °F /  3.3 °C 36.7 °F /  2.6 °C 30.10in /  1019.2hPa North 16.1mph /  25.9km/h 13mph /  20.9km/h 95% 0.00in /  0mm 3 W/m2
16:04 37.9 °F /  3.3 °C 36.6 °F /  2.6 °C 30.09in /  1018.8hPa North 13.3mph /  21.4km/h 20mph /  32.2km/h 95% 0.00in /  0mm 2 W/m2
16:09 37.9 °F /  3.3 °C 36.6 °F /  2.6 °C 30.09in /  1018.8hPa North 13.4mph /  21.6km/h 15mph /  24.1km/h 95% 0.00in /  0mm 1 W/m2
16:14 37.8 °F /  3.2 °C 36.5 °F /  2.5 °C 30.09in /  1018.8hPa North 13.8mph /  22.2km/h 14mph /  22.5km/h 95% 0.00in /  0mm 0 W/m2
16:19 37.8 °F /  3.2 °C 36.5 °F /  2.5 °C 30.09in /  1018.8hPa North 12mph /  19.3km/h 15mph /  24.1km/h 95% 0.00in /  0mm 0 W/m2
16:24 37.8 °F /  3.2 °C 36.6 °F /  2.6 °C 30.09in /  1018.8hPa North 13.6mph /  21.9km/h 14mph /  22.5km/h 95.5% 0.00in /  0mm 0 W/m2
16:29 37.7 °F /  3.2 °C 36.7 °F /  2.6 °C 30.10in /  1019.2hPa North 11.9mph /  19.2km/h 15mph /  24.1km/h 96% 0.00in /  0mm 0 W/m2
16:34 37.7 °F /  3.2 °C 36.6 °F /  2.6 °C 30.10in /  1019.2hPa North 10.7mph /  17.2km/h 14mph /  22.5km/h 96% 0.00in /  0mm 0 W/m2
16:39 37.7 °F /  3.2 °C 36.6 °F /  2.6 °C 30.10in /  1019.2hPa North 13.6mph /  21.9km/h 14mph /  22.5km/h 96% 0.00in /  0mm 0 W/m2
16:44 37.7 °F /  3.2 °C 36.6 °F /  2.6 °C 30.10in /  1019.2hPa North 15.4mph /  24.8km/h 16mph /  25.7km/h 96% 0.00in /  0mm 0 W/m2
16:49 37.6 °F /  3.1 °C 36.5 °F /  2.5 °C 30.10in /  1019.2hPa North 15.4mph /  24.8km/h 20mph /  32.2km/h 96% 0.00in /  0mm 0 W/m2
16:54 37.6 °F /  3.1 °C 36.5 °F /  2.5 °C 30.09in /  1018.8hPa North 11.9mph /  19.2km/h 16mph /  25.7km/h 96% 0.00in /  0mm 0 W/m2
16:59 37.5 °F /  3.1 °C 36.5 °F /  2.5 °C 30.09in /  1018.8hPa North 12.9mph /  20.8km/h 13mph /  20.9km/h 96% 0.00in /  0mm 0 W/m2
17:01 37.6 °F /  3.1 °C 36.5 °F /  2.5 °C 30.09in /  1018.8hPa North 15mph /  24.1km/h 8mph /  12.9km/h 96% 0.00in /  0mm 0 W/m2
17:09 37.4 °F /  3 °C 36.4 °F /  2.4 °C 30.10in /  1019.2hPa North 11.6mph /  18.7km/h 16mph /  25.7km/h 96% 0.00in /  0mm 0 W/m2
17:14 37.4 °F /  3 °C 36.5 °F /  2.5 °C 30.10in /  1019.2hPa North 16.9mph /  27.2km/h 10.3mph /  16.6km/h 96.6% 0.00in /  0mm 0 W/m2
17:19 37.4 °F /  3 °C 36.9 °F /  2.7 °C 30.10in /  1019.2hPa North 12.4mph /  20km/h 19mph /  30.6km/h 98% 0.00in /  0mm 0 W/m2
17:24 37.4 °F /  3 °C 36.9 °F /  2.7 °C 30.10in /  1019.2hPa North 12.2mph /  19.6km/h 14mph /  22.5km/h 98% 0.00in /  0mm 0 W/m2
17:29 37.2 °F /  2.9 °C 36.7 °F /  2.6 °C 30.09in /  1018.8hPa North 17mph /  27.4km/h 17mph /  27.4km/h 98% 0.00in /  0mm 0 W/m2
17:34 37.2 °F /  2.9 °C 36.7 °F /  2.6 °C 30.10in /  1019.2hPa North 13.1mph /  21.1km/h 18mph /  29km/h 98% 0.00in /  0mm 0 W/m2
17:39 37.1 °F /  2.8 °C 36.6 °F /  2.6 °C 30.10in /  1019.2hPa North 10.3mph /  16.6km/h 15mph /  24.1km/h 98% 0.00in /  0mm 0 W/m2
17:44 37 °F /  2.8 °C 36.5 °F /  2.5 °C 30.10in /  1019.2hPa North 12.8mph /  20.6km/h 13mph /  20.9km/h 98% 0.00in /  0mm 0 W/m2
17:49 36.9 °F /  2.7 °C 36.4 °F /  2.4 °C 30.10in /  1019.2hPa North 11.4mph /  18.3km/h 14mph /  22.5km/h 98% 0.00in /  0mm 0 W/m2
17:54 36.9 °F /  2.7 °C 36.3 °F /  2.4 °C 30.10in /  1019.2hPa North 15.7mph /  25.3km/h 15mph /  24.1km/h 98% 0.00in /  0mm 0 W/m2
17:59 36.7 °F /  2.6 °C 36.2 °F /  2.3 °C 30.10in /  1019.2hPa North 15.3mph /  24.6km/h 18mph /  29km/h 98% 0.00in /  0mm 0 W/m2
18:04 36.7 °F /  2.6 °C 36.4 °F /  2.4 °C 30.10in /  1019.2hPa North 10.3mph /  16.6km/h 18mph /  29km/h 98.9% 0.00in /  0mm 0 W/m2
18:09 36.7 °F /  2.6 °C 36.4 °F /  2.4 °C 30.10in /  1019.2hPa North 10.6mph /  17.1km/h 12mph /  19.3km/h 99% 0.00in /  0mm 0 W/m2
18:14 36.6 °F /  2.6 °C 36.3 °F /  2.4 °C 30.10in /  1019.2hPa North 12.6mph /  20.3km/h 13mph /  20.9km/h 99% 0.00in /  0mm 0 W/m2
18:19 36.5 °F /  2.5 °C 36.2 °F /  2.3 °C 30.10in /  1019.2hPa North 13.5mph /  21.7km/h 14mph /  22.5km/h 99% 0.00in /  0mm 0 W/m2
18:24 36.5 °F /  2.5 °C 36.2 °F /  2.3 °C 30.10in /  1019.2hPa North 15.7mph /  25.3km/h 15mph /  24.1km/h 99% 0.00in /  0mm 0 W/m2
18:29 36.5 °F /  2.5 °C 36.2 °F /  2.3 °C 30.10in /  1019.2hPa North 15.2mph /  24.5km/h 18mph /  29km/h 99% 0.00in /  0mm 0 W/m2
18:34 36.5 °F /  2.5 °C 36.2 °F /  2.3 °C 30.10in /  1019.2hPa North 12.8mph /  20.6km/h 18mph /  29km/h 99% 0.00in /  0mm 0 W/m2
18:39 36.5 °F /  2.5 °C 36.2 °F /  2.3 °C 30.10in /  1019.2hPa North 13.9mph /  22.4km/h 15mph /  24.1km/h 99% 0.00in /  0mm 0 W/m2
18:44 36.3 °F /  2.4 °C 36.1 °F /  2.3 °C 30.10in /  1019.2hPa North 14.6mph /  23.5km/h 15mph /  24.1km/h 99% 0.00in /  0mm 0 W/m2
18:49 36.3 °F /  2.4 °C 36.1 °F /  2.3 °C 30.10in /  1019.2hPa North 16.4mph /  26.4km/h 16mph /  25.7km/h 99% 0.00in /  0mm 0 W/m2
18:54 36.1 °F /  2.3 °C 35.9 °F /  2.2 °C 30.10in /  1019.2hPa North 14.5mph /  23.3km/h 18mph /  29km/h 99% 0.00in /  0mm 0 W/m2
18:59 36.1 °F /  2.3 °C 35.9 °F /  2.2 °C 30.10in /  1019.2hPa North 17.1mph /  27.5km/h 16mph /  25.7km/h 99% 0.00in /  0mm 0 W/m2
19:04 36 °F /  2.2 °C 35.7 °F /  2.1 °C 30.10in /  1019.2hPa North 14.5mph /  23.3km/h 20mph /  32.2km/h 99% 0.00in /  0mm 0 W/m2
19:09 36 °F /  2.2 °C 35.7 °F /  2.1 °C 30.10in /  1019.2hPa North 11.6mph /  18.7km/h 17mph /  27.4km/h 99% 0.00in /  0mm 0 W/m2
19:14 36 °F /  2.2 °C 35.7 °F /  2.1 °C 30.10in /  1019.2hPa North 10.8mph /  17.4km/h 13mph /  20.9km/h 99% 0.00in /  0mm 0 W/m2
19:19 36 °F /  2.2 °C 35.7 °F /  2.1 °C 30.10in /  1019.2hPa North 14.7mph /  23.7km/h 13mph /  20.9km/h 99% 0.00in /  0mm 0 W/m2
19:24 36 °F /  2.2 °C 35.7 °F /  2.1 °C 30.11in /  1019.5hPa North 16.6mph /  26.7km/h 20mph /  32.2km/h 99% 0.00in /  0mm 0 W/m2
19:29 36.1 °F /  2.3 °C 35.8 °F /  2.1 °C 30.11in /  1019.5hPa North 14.4mph /  23.2km/h 20mph /  32.2km/h 99% 0.00in /  0mm 0 W/m2
19:34 36 °F /  2.2 °C 35.8 °F /  2.1 °C 30.11in /  1019.5hPa North 13.1mph /  21.1km/h 17mph /  27.4km/h 99% 0.00in /  0mm 0 W/m2
19:39 36 °F /  2.2 °C 35.7 °F /  2.1 °C 30.11in /  1019.5hPa North 12.1mph /  19.5km/h 15mph /  24.1km/h 99% 0.00in /  0mm 0 W/m2
19:44 35.9 °F /  2.2 °C 35.6 °F /  2 °C 30.10in /  1019.2hPa North 15.1mph /  24.3km/h 13mph /  20.9km/h 99% 0.00in /  0mm 0 W/m2
19:49 35.8 °F /  2.1 °C 35.5 °F /  1.9 °C 30.10in /  1019.2hPa North 17.5mph /  28.2km/h 17mph /  27.4km/h 99% 0.00in /  0mm 0 W/m2
19:54 35.8 °F /  2.1 °C 35.5 °F /  1.9 °C 30.10in /  1019.2hPa North 16.9mph /  27.2km/h 19mph /  30.6km/h 99% 0.00in /  0mm 0 W/m2
19:59 36 °F /  2.2 °C 35.7 °F /  2.1 °C 30.10in /  1019.2hPa North 14.7mph /  23.7km/h 18mph /  29km/h 99% 0.00in /  0mm 0 W/m2
20:04 36 °F /  2.2 °C 35.7 °F /  2.1 °C 30.10in /  1019.2hPa North 14.6mph /  23.5km/h 18mph /  29km/h 99% 0.00in /  0mm 0 W/m2
20:09 36 °F /  2.2 °C 35.7 °F /  2.1 °C 30.10in /  1019.2hPa North 17.2mph /  27.7km/h 15mph /  24.1km/h 99% 0.00in /  0mm 0 W/m2
20:14 36.1 °F /  2.3 °C 35.8 °F /  2.1 °C 30.10in /  1019.2hPa North 15.8mph /  25.4km/h 22mph /  35.4km/h 99% 0.00in /  0mm 0 W/m2
20:19 36.1 °F /  2.3 °C 35.8 °F /  2.1 °C 30.11in /  1019.5hPa North 14.2mph /  22.9km/h 22mph /  35.4km/h 99% 0.00in /  0mm 0 W/m2
20:24 36.1 °F /  2.3 °C 35.7 °F /  2.1 °C 30.11in /  1019.5hPa North 14.7mph /  23.7km/h 16mph /  25.7km/h 98.3% 0.00in /  0mm 0 W/m2
20:29 36.1 °F /  2.3 °C 35.6 °F /  2 °C 30.11in /  1019.5hPa North 16.1mph /  25.9km/h 20mph /  32.2km/h 98% 0.00in /  0mm 0 W/m2
20:34 36.1 °F /  2.3 °C 35.7 °F /  2.1 °C 30.11in /  1019.5hPa North 12.1mph /  19.5km/h 20mph /  32.2km/h 98.3% 0.00in /  0mm 0 W/m2
20:39 36.1 °F /  2.3 °C 35.9 °F /  2.2 °C 30.11in /  1019.5hPa North 11.2mph /  18km/h 14mph /  22.5km/h 99% 0.00in /  0mm 0 W/m2
20:44 36.1 °F /  2.3 °C 35.9 °F /  2.2 °C 30.11in /  1019.5hPa North 12.1mph /  19.5km/h 13mph /  20.9km/h 99% 0.00in /  0mm 0 W/m2
20:49 36.1 °F /  2.3 °C 35.9 °F /  2.2 °C 30.11in /  1019.5hPa North 11.3mph /  18.2km/h 14mph /  22.5km/h 99% 0.00in /  0mm 0 W/m2
20:54 36.1 °F /  2.3 °C 35.9 °F /  2.2 °C 30.11in /  1019.5hPa North 11.5mph /  18.5km/h 14mph /  22.5km/h 99% 0.00in /  0mm 0 W/m2
20:59 36.1 °F /  2.3 °C 35.8 °F /  2.1 °C 30.11in /  1019.5hPa North 11.4mph /  18.3km/h 13mph /  20.9km/h 98.8% 0.00in /  0mm 0 W/m2
21:04 36.1 °F /  2.3 °C 35.6 °F /  2 °C 30.11in /  1019.5hPa North 10.1mph /  16.3km/h 14mph /  22.5km/h 98% 0.00in /  0mm 0 W/m2
21:09 36.3 °F /  2.4 °C 35.8 °F /  2.1 °C 30.11in /  1019.5hPa North 11.6mph /  18.7km/h 12mph /  19.3km/h 98% 0.00in /  0mm 0 W/m2
21:14 36.3 °F /  2.4 °C 35.8 °F /  2.1 °C 30.10in /  1019.2hPa North 13.6mph /  21.9km/h 14mph /  22.5km/h 98% 0.00in /  0mm 0 W/m2
21:19 36.3 °F /  2.4 °C 35.8 °F /  2.1 °C 30.10in /  1019.2hPa North 12.8mph /  20.6km/h 17mph /  27.4km/h 98% 0.00in /  0mm 0 W/m2
21:24 36.3 °F /  2.4 °C 35.8 °F /  2.1 °C 30.10in /  1019.2hPa North 10.6mph /  17.1km/h 16mph /  25.7km/h 98% 0.00in /  0mm 0 W/m2
21:29 36.3 °F /  2.4 °C 35.8 °F /  2.1 °C 30.10in /  1019.2hPa North 11.9mph /  19.2km/h 14mph /  22.5km/h 98% 0.00in /  0mm 0 W/m2
21:34 36.3 °F /  2.4 °C 35.8 °F /  2.1 °C 30.10in /  1019.2hPa North 11.7mph /  18.8km/h 15mph /  24.1km/h 98% 0.00in /  0mm 0 W/m2
21:39 36.3 °F /  2.4 °C 35.8 °F /  2.1 °C 30.10in /  1019.2hPa North 12.3mph /  19.8km/h 15mph /  24.1km/h 98% 0.00in /  0mm 0 W/m2
21:44 36.3 °F /  2.4 °C 35.8 °F /  2.1 °C 30.10in /  1019.2hPa North 12.9mph /  20.8km/h 14mph /  22.5km/h 98% 0.00in /  0mm 0 W/m2
21:49 36.3 °F /  2.4 °C 35.8 °F /  2.1 °C 30.10in /  1019.2hPa North 12.5mph /  20.1km/h 21mph /  33.8km/h 98% 0.00in /  0mm 0 W/m2
21:54 36.3 °F /  2.4 °C 35.8 °F /  2.1 °C 30.10in /  1019.2hPa North 10.7mph /  17.2km/h 12mph /  19.3km/h 98% 0.00in /  0mm 0 W/m2
21:59 36.3 °F /  2.4 °C 35.8 °F /  2.1 °C 30.10in /  1019.2hPa North 12mph /  19.3km/h 14mph /  22.5km/h 98% 0.00in /  0mm 0 W/m2
22:04 36.5 °F /  2.5 °C 36 °F /  2.2 °C 30.10in /  1019.2hPa North 10.5mph /  16.9km/h 15mph /  24.1km/h 98% 0.00in /  0mm 0 W/m2
22:09 36.5 °F /  2.5 °C 36 °F /  2.2 °C 30.10in /  1019.2hPa North 9.6mph /  15.4km/h 12mph /  19.3km/h 98% 0.00in /  0mm 0 W/m2
22:14 36.6 °F /  2.6 °C 36.1 °F /  2.3 °C 30.10in /  1019.2hPa North 9.4mph /  15.1km/h 12mph /  19.3km/h 98% 0.00in /  0mm 0 W/m2
22:19 36.7 °F /  2.6 °C 36.2 °F /  2.3 °C 30.10in /  1019.2hPa North 8.6mph /  13.8km/h 11mph /  17.7km/h 98% 0.00in /  0mm 0 W/m2
22:24 36.7 °F /  2.6 °C 36.2 °F /  2.3 °C 30.10in /  1019.2hPa North 12.1mph /  19.5km/h 12mph /  19.3km/h 98% 0.00in /  0mm 0 W/m2
22:29 36.8 °F /  2.7 °C 36.3 °F /  2.4 °C 30.10in /  1019.2hPa NNW 10.7mph /  17.2km/h 16mph /  25.7km/h 98% 0.00in /  0mm 0 W/m2
22:34 36.9 °F /  2.7 °C 35.8 °F /  2.1 °C 30.10in /  1019.2hPa NNW 11.4mph /  18.3km/h 13mph /  20.9km/h 96.1% 0.00in /  0mm 0 W/m2
22:39 36.9 °F /  2.7 °C 35.8 °F /  2.1 °C 30.10in /  1019.2hPa North 9.3mph /  15km/h 13mph /  20.9km/h 96% 0.00in /  0mm 0 W/m2
22:44 36.9 °F /  2.7 °C 35.8 °F /  2.1 °C 30.10in /  1019.2hPa North 6.3mph /  10.1km/h 10mph /  16.1km/h 96% 0.00in /  0mm 0 W/m2
22:49 36.9 °F /  2.7 °C 35.8 °F /  2.1 °C 30.10in /  1019.2hPa North 11.3mph /  18.2km/h 9mph /  14.5km/h 96% 0.00in /  0mm 0 W/m2
22:54 36.9 °F /  2.7 °C 35.8 °F /  2.1 °C 30.10in /  1019.2hPa North 10.2mph /  16.4km/h 14mph /  22.5km/h 96% 0.00in /  0mm 0 W/m2
22:59 36.9 °F /  2.7 °C 35.8 °F /  2.1 °C 30.10in /  1019.2hPa North 10mph /  16.1km/h 14mph /  22.5km/h 96% 0.00in /  0mm 0 W/m2
23:04 36.9 °F /  2.7 °C 35.8 °F /  2.1 °C 30.10in /  1019.2hPa North 7.2mph /  11.6km/h 12mph /  19.3km/h 96% 0.00in /  0mm 0 W/m2
23:09 36.9 °F /  2.7 °C 35.9 °F /  2.2 °C 30.10in /  1019.2hPa North 8.2mph /  13.2km/h 8mph /  12.9km/h 96% 0.00in /  0mm 0 W/m2
23:14 37 °F /  2.8 °C 36 °F /  2.2 °C 30.10in /  1019.2hPa North 9.5mph /  15.3km/h 12mph /  19.3km/h 96% 0.00in /  0mm 0 W/m2
23:19 37 °F /  2.8 °C 36 °F /  2.2 °C 30.10in /  1019.2hPa North 7mph /  11.3km/h 11mph /  17.7km/h 96% 0.00in /  0mm 0 W/m2
23:24 37 °F /  2.8 °C 36 °F /  2.2 °C 30.09in /  1018.8hPa North 9.2mph /  14.8km/h 8mph /  12.9km/h 96% 0.00in /  0mm 0 W/m2
23:29 37 °F /  2.8 °C 36 °F /  2.2 °C 30.10in /  1019.2hPa North 7.9mph /  12.7km/h 12mph /  19.3km/h 96% 0.00in /  0mm 0 W/m2
23:34 37.2 °F /  2.9 °C 36.1 °F /  2.3 °C 30.09in /  1018.8hPa North 10mph /  16.1km/h 10mph /  16.1km/h 95.7% 0.00in /  0mm 0 W/m2
23:39 37.2 °F /  2.9 °C 35.9 °F /  2.2 °C 30.09in /  1018.8hPa North 9.5mph /  15.3km/h 13mph /  20.9km/h 95% 0.00in /  0mm 0 W/m2
23:44 37.4 °F /  3 °C 36.1 °F /  2.3 °C 30.09in /  1018.8hPa North 7.7mph /  12.4km/h 11mph /  17.7km/h 95% 0.00in /  0mm 0 W/m2
23:49 37.4 °F /  3 °C 36.1 °F /  2.3 °C 30.09in /  1018.8hPa North 9.2mph /  14.8km/h 10mph /  16.1km/h 95% 0.00in /  0mm 0 W/m2
23:54 37.4 °F /  3 °C 36.1 °F /  2.3 °C 30.09in /  1018.8hPa North 7.3mph /  11.7km/h 10mph /  16.1km/h 95% 0.00in /  0mm 0 W/m2
23:59 37.4 °F /  3 °C 36.1 °F /  2.3 °C 30.09in /  1018.8hPa North 9.4mph /  15.1km/h 10mph /  16.1km/h 95% 0.00in /  0mm 0 W/m2
Knjazevac, Serbia
Compliments of Weather Underground - 4 mb